aviador You're here:

ETAR Decoded Metar

RAMSTEIN in GERMANY
Report Time2017-12-18 08:49:00
UTC Time2017-12-18 08:59:58
Flight Rules ifr IFR
WindCalm
Visibility9999 m
Phenomena:N/A
Clouds:Overcast 008 Hf
Ceiling800 ft
Temp01°C (ISA -12)
Dew Point01°C (100% RH)
AAT-0.8°C
QNH1019 hPa
Density Alt-846 ft
Elevation781 ft
Report Wrong Elevation
Raw Report
ETAR 180849Z 00000KT 9999 OVC008 01/01 A3010 RMK AO2A SNE49 SLP209
$=

Extra information for ETAR:More info

Metar Taf Metar & Taf Last 4 Metars F.Rules Stats Wind Profile Meteogram Temp Stats Airport Information Weather charts Add Link Nearby VenuesMetar ALERT Operation Metar Decoded Social comments